createdAt,value
2022-11-10T00:01:32.885Z,48.43
2022-11-10T00:03:59.453Z,48.65
2022-11-10T00:06:26.921Z,48.92
2022-11-10T00:08:54.383Z,48.76
2022-11-10T00:11:22.007Z,48.54
2022-11-10T00:13:49.381Z,48.88
2022-11-10T00:16:15.935Z,48.36
2022-11-10T00:18:43.315Z,48.74
2022-11-10T00:21:09.771Z,48.82
2022-11-10T00:23:36.254Z,49.00
2022-11-10T00:26:03.654Z,48.82
2022-11-10T00:28:30.138Z,48.58
2022-11-10T00:30:56.596Z,48.47
2022-11-10T00:33:23.366Z,49.28
2022-11-10T00:35:50.137Z,48.23
2022-11-10T00:38:16.573Z,48.95
2022-11-10T00:40:43.018Z,48.67
2022-11-10T00:43:09.470Z,48.81
2022-11-10T00:45:35.941Z,48.73
2022-11-10T00:48:02.431Z,48.19
2022-11-10T00:50:28.877Z,48.44
2022-11-10T00:52:56.242Z,48.70
2022-11-10T00:58:16.926Z,49.02
2022-11-10T01:00:44.456Z,48.49
2022-11-10T01:03:11.910Z,48.45
2022-11-10T01:05:39.301Z,48.33
2022-11-10T01:08:05.769Z,48.78
2022-11-10T01:13:18.019Z,48.80
2022-11-10T01:15:45.397Z,49.08
2022-11-10T01:18:12.865Z,48.57
2022-11-10T01:20:40.271Z,49.01
2022-11-10T01:23:07.688Z,49.16
2022-11-10T01:28:28.137Z,48.78
2022-11-10T01:30:54.585Z,49.02
2022-11-10T01:33:21.338Z,48.32
2022-11-10T01:35:48.927Z,48.94
2022-11-10T01:38:16.325Z,48.77
2022-11-10T01:43:38.000Z,49.08
2022-11-10T01:46:04.516Z,48.45
2022-11-10T01:48:30.971Z,48.26
2022-11-10T01:50:58.353Z,48.50
2022-11-10T01:53:25.723Z,46.64
2022-11-10T01:58:36.277Z,44.79
2022-11-10T02:01:03.726Z,44.71
2022-11-10T02:03:31.221Z,45.50
2022-11-10T02:05:57.705Z,47.08
2022-11-10T02:08:24.179Z,45.59
2022-11-10T02:13:45.351Z,47.56
2022-11-10T02:16:12.806Z,48.01
2022-11-10T02:18:40.210Z,48.24
2022-11-10T02:21:07.611Z,48.46
2022-11-10T02:23:35.006Z,47.39
2022-11-10T02:28:56.182Z,48.13
2022-11-10T02:31:22.734Z,48.36
2022-11-10T02:33:50.129Z,48.69
2022-11-10T02:36:16.657Z,48.66
2022-11-10T02:38:43.102Z,48.80
2022-11-10T02:43:53.679Z,46.67
2022-11-10T02:46:21.058Z,47.89
2022-11-10T02:48:48.418Z,48.73
2022-11-10T02:51:15.836Z,48.59
2022-11-10T02:53:43.302Z,48.88
2022-11-10T02:58:54.835Z,47.33
2022-11-10T03:01:21.396Z,47.96
2022-11-10T03:03:48.839Z,48.90
2022-11-10T03:06:16.249Z,49.26
2022-11-10T03:08:42.709Z,49.42
2022-11-10T03:14:04.834Z,49.37
2022-11-10T03:16:31.287Z,49.39
2022-11-10T03:18:57.762Z,49.46
2022-11-10T03:21:25.140Z,49.91
2022-11-10T03:23:52.551Z,49.71
2022-11-10T03:29:14.638Z,49.86
2022-11-10T03:31:42.084Z,49.40
2022-11-10T03:34:08.569Z,49.48
2022-11-10T03:36:35.022Z,49.51
2022-11-10T03:39:01.492Z,49.57
2022-11-10T03:44:13.839Z,50.12
2022-11-10T03:46:43.378Z,50.25
2022-11-10T03:49:10.159Z,50.69
2022-11-10T03:51:36.595Z,50.10
2022-11-10T03:54:03.068Z,50.32
2022-11-10T03:59:23.432Z,50.43
2022-11-10T04:01:50.807Z,50.21
2022-11-10T04:04:18.190Z,50.40
2022-11-10T04:06:45.603Z,50.12
2022-11-10T04:09:13.054Z,50.09
2022-11-10T04:14:24.522Z,50.23
2022-11-10T04:16:51.878Z,50.31
2022-11-10T04:19:19.249Z,50.46
2022-11-10T04:21:45.684Z,50.29
2022-11-10T04:24:13.060Z,50.93
2022-11-10T04:29:24.601Z,50.54
2022-11-10T04:31:51.055Z,50.38
2022-11-10T04:34:18.426Z,49.83
2022-11-10T04:36:45.800Z,50.22
2022-11-10T04:39:12.259Z,50.63
2022-11-10T04:44:32.459Z,50.27
2022-11-10T04:46:58.917Z,50.67
2022-11-10T04:49:25.384Z,50.67
2022-11-10T04:51:52.851Z,50.99
2022-11-10T04:54:20.344Z,50.77
2022-11-10T04:59:41.582Z,50.82
2022-11-10T05:02:08.987Z,51.07
2022-11-10T05:04:35.432Z,50.87
2022-11-10T05:07:01.910Z,51.13
2022-11-10T05:09:28.384Z,51.34
2022-11-10T05:17:25.830Z,51.56
2022-11-10T05:19:52.297Z,51.94
2022-11-10T05:22:18.771Z,51.94
2022-11-10T05:24:45.234Z,51.57
2022-11-10T05:27:12.627Z,51.80
2022-11-10T05:29:39.079Z,51.39
2022-11-10T05:32:05.568Z,51.47
2022-11-10T05:34:32.033Z,51.69
2022-11-10T05:36:59.408Z,51.87
2022-11-10T05:39:26.780Z,52.17
2022-11-10T05:41:54.303Z,52.41
2022-11-10T05:44:20.741Z,52.95
2022-11-10T05:46:48.187Z,52.83
2022-11-10T05:49:14.630Z,52.76
2022-11-10T05:51:41.971Z,52.95
2022-11-10T05:54:08.731Z,52.85
2022-11-10T05:56:36.269Z,53.33
2022-11-10T05:59:03.909Z,53.21
2022-11-10T06:01:31.467Z,52.65
2022-11-10T06:03:58.933Z,52.89
2022-11-10T06:06:25.379Z,52.81
2022-11-10T06:08:52.773Z,52.69
2022-11-10T06:11:20.169Z,53.07
2022-11-10T06:13:46.623Z,52.67
2022-11-10T06:16:13.982Z,52.36
2022-11-10T06:18:41.348Z,52.51
2022-11-10T06:21:07.803Z,52.52
2022-11-10T06:23:35.183Z,52.63
2022-11-10T06:26:01.597Z,52.75
2022-11-10T06:28:28.953Z,52.19
2022-11-10T06:30:56.338Z,52.43
2022-11-10T06:33:23.025Z,52.17
2022-11-10T06:35:50.594Z,52.41
2022-11-10T06:38:17.045Z,52.09
2022-11-10T06:40:43.490Z,51.88
2022-11-10T06:43:10.934Z,52.14
2022-11-10T06:45:37.398Z,52.00
2022-11-10T06:48:03.851Z,51.70
2022-11-10T06:50:30.333Z,52.06
2022-11-10T06:52:57.804Z,52.04
2022-11-10T06:55:24.256Z,52.09
2022-11-10T06:57:51.625Z,52.43
2022-11-10T07:00:18.088Z,52.30
2022-11-10T07:02:45.445Z,52.86
2022-11-10T07:05:11.896Z,53.07
2022-11-10T07:07:39.293Z,53.30
2022-11-10T07:10:07.643Z,53.37
2022-11-10T07:12:35.254Z,53.13
2022-11-10T07:15:02.623Z,53.31
2022-11-10T07:17:29.095Z,53.73
2022-11-10T07:19:55.518Z,54.03
2022-11-10T07:22:21.958Z,54.47
2022-11-10T07:24:49.299Z,54.18
2022-11-10T07:27:16.694Z,53.91
2022-11-10T07:29:43.992Z,54.11
2022-11-10T07:32:10.446Z,54.02
2022-11-10T07:34:37.832Z,54.40
2022-11-10T07:37:04.271Z,54.35
2022-11-10T07:39:31.673Z,54.30
2022-11-10T07:41:59.060Z,54.43
2022-11-10T07:44:26.475Z,54.54
2022-11-10T07:46:53.844Z,54.10
2022-11-10T07:49:21.210Z,54.15
2022-11-10T07:51:48.899Z,54.72
2022-11-10T07:54:16.333Z,54.38
2022-11-10T07:56:43.788Z,54.64
2022-11-10T07:59:11.196Z,54.59
2022-11-10T08:01:38.603Z,54.29
2022-11-10T08:04:06.026Z,54.54
2022-11-10T08:06:36.093Z,54.47
2022-11-10T08:09:03.945Z,54.25
2022-11-10T08:11:31.329Z,54.37
2022-11-10T08:13:57.782Z,54.85
2022-11-10T08:16:24.232Z,54.57
2022-11-10T08:18:50.700Z,54.96
2022-11-10T08:21:17.145Z,54.79
2022-11-10T08:23:44.584Z,54.64
2022-11-10T08:26:11.926Z,54.93
2022-11-10T08:28:38.424Z,54.64
2022-11-10T08:31:06.244Z,54.75
2022-11-10T08:33:32.873Z,54.57
2022-11-10T08:35:59.300Z,54.46
2022-11-10T08:38:26.611Z,54.62
2022-11-10T08:40:55.442Z,54.74
2022-11-10T08:43:23.343Z,54.61
2022-11-10T08:45:51.076Z,54.56
2022-11-10T08:48:18.433Z,54.31
2022-11-10T08:50:44.878Z,54.15
2022-11-10T08:53:11.329Z,54.44
2022-11-10T08:55:37.770Z,54.22
2022-11-10T08:58:05.582Z,54.00
2022-11-10T09:00:32.952Z,54.18
2022-11-10T09:03:00.296Z,53.70
2022-11-10T09:05:26.736Z,54.03
2022-11-10T09:07:54.181Z,53.95
2022-11-10T09:10:21.539Z,53.94
2022-11-10T09:12:48.005Z,53.98
2022-11-10T09:15:14.475Z,54.07
2022-11-10T09:17:41.862Z,53.47
2022-11-10T09:20:08.393Z,53.97
2022-11-10T09:22:35.683Z,54.23
2022-11-10T09:25:03.133Z,54.83
2022-11-10T09:27:30.509Z,54.42
2022-11-10T09:29:57.886Z,54.71
2022-11-10T09:32:24.360Z,54.39
2022-11-10T09:34:53.060Z,54.53
2022-11-10T09:37:20.717Z,54.53
2022-11-10T09:39:50.300Z,54.10
2022-11-10T09:42:16.737Z,54.47
2022-11-10T09:44:44.116Z,54.34
2022-11-10T09:47:12.373Z,54.37
2022-11-10T09:49:42.402Z,54.23
2022-11-10T09:52:08.875Z,54.72
2022-11-10T09:54:36.266Z,54.73
2022-11-10T09:57:02.730Z,54.98
2022-11-10T09:59:29.208Z,54.27
2022-11-10T10:01:56.680Z,54.27
2022-11-10T10:04:24.077Z,54.41
2022-11-10T10:07:09.976Z,53.95
2022-11-10T10:09:38.356Z,53.88
2022-11-10T10:12:04.835Z,53.98
2022-11-10T10:14:32.197Z,54.13
2022-11-10T10:16:58.684Z,54.29
2022-11-10T10:19:26.076Z,54.83
2022-11-10T10:21:53.420Z,54.34
2022-11-10T10:24:22.035Z,54.71
2022-11-10T10:26:48.915Z,54.78
2022-11-10T10:29:15.424Z,54.23
2022-11-10T10:31:42.792Z,54.90
2022-11-10T10:34:10.159Z,54.70
2022-11-10T10:36:37.529Z,54.92
2022-11-10T10:39:04.909Z,56.02
2022-11-10T10:41:31.426Z,54.98
2022-11-10T10:43:58.827Z,54.79
2022-11-10T20:46:52.863Z,55.40
2022-11-10T20:49:14.468Z,55.61
2022-11-10T20:51:40.970Z,55.27
2022-11-10T20:54:09.275Z,55.50
2022-11-10T20:56:35.793Z,55.57
2022-11-10T20:59:04.129Z,55.17
2022-11-10T21:01:32.074Z,55.59
2022-11-10T21:03:58.623Z,55.33
2022-11-10T21:06:26.215Z,55.23
2022-11-10T21:08:52.841Z,55.21
2022-11-10T21:11:20.079Z,55.20
2022-11-10T21:13:46.856Z,54.69
2022-11-10T21:16:13.356Z,54.78
2022-11-10T21:18:39.769Z,54.95
2022-11-10T21:21:06.259Z,54.53
2022-11-10T21:23:32.649Z,54.44
